Arnold, Nebraska
Current Conditions -  °F | °C
As of 1:53 PM on Wednesday 28 Jan 2015 (Local Time) from KBBW Reporting Station
Clear Clear  
Wind Chill: 19°   Ceiling: Unl
Heat Index: 19°   Visibility: 10mi
Dew Point:   Wind: 28mph
Humidity: 30%   Direction: 320°NW
Pressure: 29.74"   Gusts: 32mph
Location:  41.42°N, 100.19°W
Report Text: KBBW 281953Z AUTO 32024G28KT 10SM CLR 19/01 A2974 RMK AO2 PK WND 30030/1901 SLP067 T01940011
Loading
Personal Weather Stations






























Interactive Weather Map New forecast layout! Learn more

10-Day Weather Forecast

Advertisements
Track Severe Weather on mobile